sensor_id;sensor_type;location;lat;lon;timestamp;P1;durP1;ratioP1;P2;durP2;ratioP2
20794;SDS011;28087;-33.874;151.240;2024-03-08T00:01:16;7.50;;;2.40;;
20794;SDS011;28087;-33.874;151.240;2024-03-08T00:04:25;7.97;;;2.40;;
20794;SDS011;28087;-33.874;151.240;2024-03-08T00:07:31;8.85;;;2.42;;
20794;SDS011;28087;-33.874;151.240;2024-03-08T00:10:38;9.45;;;2.45;;
20794;SDS011;28087;-33.874;151.240;2024-03-08T00:13:45;8.50;;;2.00;;
20794;SDS011;28087;-33.874;151.240;2024-03-08T00:16:51;9.38;;;2.80;;
20794;SDS011;28087;-33.874;151.240;2024-03-08T00:20:00;8.45;;;2.28;;
20794;SDS011;28087;-33.874;151.240;2024-03-08T00:23:07;9.13;;;2.25;;
20794;SDS011;28087;-33.874;151.240;2024-03-08T00:26:13;10.73;;;2.88;;
20794;SDS011;28087;-33.874;151.240;2024-03-08T00:29:20;14.18;;;3.40;;
20794;SDS011;28087;-33.874;151.240;2024-03-08T00:32:27;8.65;;;2.25;;
20794;SDS011;28087;-33.874;151.240;2024-03-08T00:35:38;9.00;;;2.63;;
20794;SDS011;28087;-33.874;151.240;2024-03-08T00:38:44;13.18;;;2.88;;
20794;SDS011;28087;-33.874;151.240;2024-03-08T00:41:51;11.80;;;2.80;;
20794;SDS011;28087;-33.874;151.240;2024-03-08T00:44:57;16.55;;;3.38;;
20794;SDS011;28087;-33.874;151.240;2024-03-08T00:48:03;12.23;;;2.97;;
20794;SDS011;28087;-33.874;151.240;2024-03-08T00:51:13;11.95;;;2.63;;
20794;SDS011;28087;-33.874;151.240;2024-03-08T00:54:18;13.43;;;2.88;;
20794;SDS011;28087;-33.874;151.240;2024-03-08T00:57:34;12.50;;;2.80;;
20794;SDS011;28087;-33.874;151.240;2024-03-08T01:00:40;12.18;;;2.85;;
20794;SDS011;28087;-33.874;151.240;2024-03-08T01:03:46;10.35;;;2.60;;
20794;SDS011;28087;-33.874;151.240;2024-03-08T01:06:54;12.02;;;3.00;;
20794;SDS011;28087;-33.874;151.240;2024-03-08T01:09:59;10.05;;;2.70;;
20794;SDS011;28087;-33.874;151.240;2024-03-08T01:13:09;13.50;;;2.60;;
20794;SDS011;28087;-33.874;151.240;2024-03-08T01:16:10;12.18;;;2.35;;
20794;SDS011;28087;-33.874;151.240;2024-03-08T01:19:11;7.82;;;2.00;;
20794;SDS011;28087;-33.874;151.240;2024-03-08T01:22:19;7.22;;;1.92;;
20794;SDS011;28087;-33.874;151.240;2024-03-08T01:25:27;8.35;;;1.90;;
20794;SDS011;28087;-33.874;151.240;2024-03-08T01:28:34;8.10;;;2.05;;
20794;SDS011;28087;-33.874;151.240;2024-03-08T01:31:41;9.52;;;2.10;;
20794;SDS011;28087;-33.874;151.240;2024-03-08T01:34:48;9.30;;;2.20;;
20794;SDS011;28087;-33.874;151.240;2024-03-08T01:37:57;9.15;;;2.28;;
20794;SDS011;28087;-33.874;151.240;2024-03-08T01:41:02;7.45;;;2.10;;
20794;SDS011;28087;-33.874;151.240;2024-03-08T01:44:08;7.53;;;1.77;;
20794;SDS011;28087;-33.874;151.240;2024-03-08T01:47:14;9.63;;;1.98;;
20794;SDS011;28087;-33.874;151.240;2024-03-08T01:50:21;9.18;;;1.65;;
20794;SDS011;28087;-33.874;151.240;2024-03-08T01:53:31;12.68;;;2.33;;
20794;SDS011;28087;-33.874;151.240;2024-03-08T01:56:38;32.10;;;3.30;;
20794;SDS011;28087;-33.874;151.240;2024-03-08T01:59:45;19.67;;;2.47;;
20794;SDS011;28087;-33.874;151.240;2024-03-08T02:02:53;8.95;;;1.70;;
20794;SDS011;28087;-33.874;151.240;2024-03-08T02:05:59;12.52;;;1.92;;
20794;SDS011;28087;-33.874;151.240;2024-03-08T02:09:08;7.75;;;1.88;;
20794;SDS011;28087;-33.874;151.240;2024-03-08T02:12:14;8.05;;;1.80;;
20794;SDS011;28087;-33.874;151.240;2024-03-08T02:15:20;8.25;;;1.90;;
20794;SDS011;28087;-33.874;151.240;2024-03-08T02:18:20;6.57;;;1.60;;
20794;SDS011;28087;-33.874;151.240;2024-03-08T02:21:24;8.80;;;1.75;;
20794;SDS011;28087;-33.874;151.240;2024-03-08T02:24:30;5.93;;;1.60;;
20794;SDS011;28087;-33.874;151.240;2024-03-08T02:27:36;7.38;;;1.80;;
20794;SDS011;28087;-33.874;151.240;2024-03-08T02:30:42;6.28;;;1.20;;
20794;SDS011;28087;-33.874;151.240;2024-03-08T02:33:51;5.25;;;1.25;;
20794;SDS011;28087;-33.874;151.240;2024-03-08T02:36:59;8.18;;;1.50;;
20794;SDS011;28087;-33.874;151.240;2024-03-08T02:40:05;3.90;;;1.20;;
20794;SDS011;28087;-33.874;151.240;2024-03-08T02:43:11;5.90;;;1.30;;
20794;SDS011;28087;-33.874;151.240;2024-03-08T02:46:18;7.85;;;1.58;;
20794;SDS011;28087;-33.874;151.240;2024-03-08T02:49:28;6.30;;;1.42;;
20794;SDS011;28087;-33.874;151.240;2024-03-08T02:52:37;4.68;;;1.40;;
20794;SDS011;28087;-33.874;151.240;2024-03-08T02:55:42;7.30;;;1.58;;
20794;SDS011;28087;-33.874;151.240;2024-03-08T02:58:48;7.13;;;1.50;;
20794;SDS011;28087;-33.874;151.240;2024-03-08T03:01:55;5.43;;;1.30;;
20794;SDS011;28087;-33.874;151.240;2024-03-08T03:05:02;7.82;;;1.55;;
20794;SDS011;28087;-33.874;151.240;2024-03-08T03:08:10;4.32;;;1.20;;
20794;SDS011;28087;-33.874;151.240;2024-03-08T03:11:16;7.30;;;1.55;;
20794;SDS011;28087;-33.874;151.240;2024-03-08T03:14:23;6.95;;;1.70;;
20794;SDS011;28087;-33.874;151.240;2024-03-08T03:17:30;4.57;;;1.20;;
20794;SDS011;28087;-33.874;151.240;2024-03-08T03:20:36;5.43;;;1.23;;
20794;SDS011;28087;-33.874;151.240;2024-03-08T03:23:38;6.00;;;1.13;;
20794;SDS011;28087;-33.874;151.240;2024-03-08T03:26:38;6.45;;;1.58;;
20794;SDS011;28087;-33.874;151.240;2024-03-08T03:29:45;4.07;;;1.00;;
20794;SDS011;28087;-33.874;151.240;2024-03-08T03:32:51;6.75;;;1.30;;
20794;SDS011;28087;-33.874;151.240;2024-03-08T03:35:59;4.20;;;1.00;;
20794;SDS011;28087;-33.874;151.240;2024-03-08T03:39:09;9.90;;;1.45;;
20794;SDS011;28087;-33.874;151.240;2024-03-08T03:42:19;4.13;;;0.90;;
20794;SDS011;28087;-33.874;151.240;2024-03-08T03:45:25;6.50;;;1.10;;
20794;SDS011;28087;-33.874;151.240;2024-03-08T03:48:32;8.38;;;1.30;;
20794;SDS011;28087;-33.874;151.240;2024-03-08T03:51:40;4.93;;;0.93;;
20794;SDS011;28087;-33.874;151.240;2024-03-08T03:54:48;4.07;;;1.20;;
20794;SDS011;28087;-33.874;151.240;2024-03-08T03:57:54;5.85;;;1.33;;
20794;SDS011;28087;-33.874;151.240;2024-03-08T04:01:00;4.90;;;1.17;;
20794;SDS011;28087;-33.874;151.240;2024-03-08T04:04:07;6.45;;;1.13;;
20794;SDS011;28087;-33.874;151.240;2024-03-08T04:07:13;5.30;;;1.00;;
20794;SDS011;28087;-33.874;151.240;2024-03-08T04:10:21;5.75;;;1.20;;
20794;SDS011;28087;-33.874;151.240;2024-03-08T04:13:27;4.75;;;1.00;;
20794;SDS011;28087;-33.874;151.240;2024-03-08T04:16:33;5.85;;;1.10;;
20794;SDS011;28087;-33.874;151.240;2024-03-08T04:19:39;6.25;;;1.10;;
20794;SDS011;28087;-33.874;151.240;2024-03-08T04:22:47;7.68;;;1.52;;
20794;SDS011;28087;-33.874;151.240;2024-03-08T04:25:55;4.63;;;1.02;;
20794;SDS011;28087;-33.874;151.240;2024-03-08T04:29:06;5.72;;;1.10;;
20794;SDS011;28087;-33.874;151.240;2024-03-08T04:32:13;6.03;;;1.20;;
20794;SDS011;28087;-33.874;151.240;2024-03-08T04:35:19;5.53;;;1.08;;
20794;SDS011;28087;-33.874;151.240;2024-03-08T04:38:21;5.40;;;1.15;;
20794;SDS011;28087;-33.874;151.240;2024-03-08T04:41:23;5.47;;;1.13;;
20794;SDS011;28087;-33.874;151.240;2024-03-08T04:44:30;3.10;;;0.70;;
20794;SDS011;28087;-33.874;151.240;2024-03-08T04:47:37;5.43;;;1.10;;
20794;SDS011;28087;-33.874;151.240;2024-03-08T04:50:44;4.18;;;0.98;;
20794;SDS011;28087;-33.874;151.240;2024-03-08T04:53:51;9.35;;;1.05;;
20794;SDS011;28087;-33.874;151.240;2024-03-08T04:56:59;6.20;;;0.90;;
20794;SDS011;28087;-33.874;151.240;2024-03-08T05:00:07;5.88;;;0.90;;
20794;SDS011;28087;-33.874;151.240;2024-03-08T05:03:13;4.00;;;0.85;;
20794;SDS011;28087;-33.874;151.240;2024-03-08T05:06:22;4.03;;;0.82;;
20794;SDS011;28087;-33.874;151.240;2024-03-08T05:09:29;6.75;;;1.10;;
20794;SDS011;28087;-33.874;151.240;2024-03-08T05:12:38;5.82;;;1.20;;
20794;SDS011;28087;-33.874;151.240;2024-03-08T05:15:48;6.30;;;1.10;;
20794;SDS011;28087;-33.874;151.240;2024-03-08T05:18:54;5.75;;;1.00;;
20794;SDS011;28087;-33.874;151.240;2024-03-08T05:22:00;5.93;;;1.02;;
20794;SDS011;28087;-33.874;151.240;2024-03-08T05:25:06;7.50;;;1.17;;
20794;SDS011;28087;-33.874;151.240;2024-03-08T05:28:15;4.72;;;1.00;;
20794;SDS011;28087;-33.874;151.240;2024-03-08T05:31:22;5.00;;;1.25;;
20794;SDS011;28087;-33.874;151.240;2024-03-08T05:34:28;5.20;;;1.30;;
20794;SDS011;28087;-33.874;151.240;2024-03-08T05:37:34;6.43;;;1.30;;
20794;SDS011;28087;-33.874;151.240;2024-03-08T05:40:40;4.68;;;1.05;;
20794;SDS011;28087;-33.874;151.240;2024-03-08T05:43:49;2.97;;;0.90;;
20794;SDS011;28087;-33.874;151.240;2024-03-08T05:46:55;3.80;;;0.90;;
20794;SDS011;28087;-33.874;151.240;2024-03-08T05:50:03;4.03;;;0.90;;
20794;SDS011;28087;-33.874;151.240;2024-03-08T05:53:11;2.60;;;0.80;;
20794;SDS011;28087;-33.874;151.240;2024-03-08T05:56:17;3.58;;;0.90;;
20794;SDS011;28087;-33.874;151.240;2024-03-08T05:59:27;7.05;;;0.90;;
20794;SDS011;28087;-33.874;151.240;2024-03-08T06:02:28;4.00;;;0.98;;
20794;SDS011;28087;-33.874;151.240;2024-03-08T06:05:28;4.72;;;0.80;;
20794;SDS011;28087;-33.874;151.240;2024-03-08T06:08:38;5.95;;;0.90;;
20794;SDS011;28087;-33.874;151.240;2024-03-08T06:11:44;3.35;;;0.80;;
20794;SDS011;28087;-33.874;151.240;2024-03-08T06:14:53;3.28;;;0.75;;
20794;SDS011;28087;-33.874;151.240;2024-03-08T06:18:00;6.03;;;0.88;;
20794;SDS011;28087;-33.874;151.240;2024-03-08T06:21:08;2.10;;;0.70;;
20794;SDS011;28087;-33.874;151.240;2024-03-08T06:24:14;5.50;;;0.90;;
20794;SDS011;28087;-33.874;151.240;2024-03-08T06:27:20;4.10;;;0.90;;
20794;SDS011;28087;-33.874;151.240;2024-03-08T06:30:32;5.07;;;0.80;;
20794;SDS011;28087;-33.874;151.240;2024-03-08T06:33:38;6.70;;;1.00;;
20794;SDS011;28087;-33.874;151.240;2024-03-08T06:36:46;3.15;;;0.70;;
20794;SDS011;28087;-33.874;151.240;2024-03-08T06:39:56;3.30;;;0.80;;
20794;SDS011;28087;-33.874;151.240;2024-03-08T06:43:03;2.25;;;0.60;;
20794;SDS011;28087;-33.874;151.240;2024-03-08T06:46:14;2.40;;;0.75;;
20794;SDS011;28087;-33.874;151.240;2024-03-08T06:49:19;4.47;;;0.95;;
20794;SDS011;28087;-33.874;151.240;2024-03-08T06:52:25;3.70;;;0.70;;
20794;SDS011;28087;-33.874;151.240;2024-03-08T06:55:31;5.72;;;1.10;;
20794;SDS011;28087;-33.874;151.240;2024-03-08T06:58:37;3.97;;;0.88;;
20794;SDS011;28087;-33.874;151.240;2024-03-08T07:01:46;4.32;;;0.93;;
20794;SDS011;28087;-33.874;151.240;2024-03-08T07:04:51;4.65;;;1.08;;
20794;SDS011;28087;-33.874;151.240;2024-03-08T07:08:00;5.32;;;0.90;;
20794;SDS011;28087;-33.874;151.240;2024-03-08T07:11:07;3.63;;;0.90;;
20794;SDS011;28087;-33.874;151.240;2024-03-08T07:14:15;6.55;;;0.95;;
20794;SDS011;28087;-33.874;151.240;2024-03-08T07:17:24;4.07;;;1.20;;
20794;SDS011;28087;-33.874;151.240;2024-03-08T07:20:33;2.92;;;0.80;;
20794;SDS011;28087;-33.874;151.240;2024-03-08T07:23:39;3.50;;;0.90;;
20794;SDS011;28087;-33.874;151.240;2024-03-08T07:27:02;4.80;;;1.00;;
20794;SDS011;28087;-33.874;151.240;2024-03-08T07:30:08;4.47;;;1.10;;
20794;SDS011;28087;-33.874;151.240;2024-03-08T07:33:29;3.03;;;0.80;;
20794;SDS011;28087;-33.874;151.240;2024-03-08T07:36:35;5.72;;;0.80;;
20794;SDS011;28087;-33.874;151.240;2024-03-08T07:39:42;3.80;;;0.90;;
20794;SDS011;28087;-33.874;151.240;2024-03-08T07:42:48;4.40;;;1.10;;
20794;SDS011;28087;-33.874;151.240;2024-03-08T07:45:54;6.15;;;1.02;;
20794;SDS011;28087;-33.874;151.240;2024-03-08T07:49:03;4.50;;;1.20;;
20794;SDS011;28087;-33.874;151.240;2024-03-08T07:52:11;5.30;;;1.20;;
20794;SDS011;28087;-33.874;151.240;2024-03-08T07:55:17;6.00;;;1.17;;
20794;SDS011;28087;-33.874;151.240;2024-03-08T07:58:24;5.90;;;1.10;;
20794;SDS011;28087;-33.874;151.240;2024-03-08T08:01:32;3.83;;;1.00;;
20794;SDS011;28087;-33.874;151.240;2024-03-08T08:04:41;8.73;;;1.13;;
20794;SDS011;28087;-33.874;151.240;2024-03-08T08:07:48;3.58;;;0.85;;
20794;SDS011;28087;-33.874;151.240;2024-03-08T08:10:55;3.78;;;0.90;;
20794;SDS011;28087;-33.874;151.240;2024-03-08T08:14:01;6.07;;;1.02;;
20794;SDS011;28087;-33.874;151.240;2024-03-08T08:17:08;5.32;;;1.30;;
20794;SDS011;28087;-33.874;151.240;2024-03-08T08:20:16;7.03;;;1.10;;
20794;SDS011;28087;-33.874;151.240;2024-03-08T08:23:23;5.38;;;1.17;;
20794;SDS011;28087;-33.874;151.240;2024-03-08T08:26:29;7.93;;;1.48;;
20794;SDS011;28087;-33.874;151.240;2024-03-08T08:29:35;3.05;;;0.90;;
20794;SDS011;28087;-33.874;151.240;2024-03-08T08:32:42;6.60;;;1.23;;
20794;SDS011;28087;-33.874;151.240;2024-03-08T08:35:51;4.13;;;1.00;;
20794;SDS011;28087;-33.874;151.240;2024-03-08T08:38:57;4.00;;;1.02;;
20794;SDS011;28087;-33.874;151.240;2024-03-08T08:42:08;5.85;;;1.08;;
20794;SDS011;28087;-33.874;151.240;2024-03-08T08:45:14;5.95;;;1.30;;
20794;SDS011;28087;-33.874;151.240;2024-03-08T08:48:20;4.88;;;1.13;;
20794;SDS011;28087;-33.874;151.240;2024-03-08T08:51:28;4.18;;;1.20;;
20794;SDS011;28087;-33.874;151.240;2024-03-08T08:54:35;5.75;;;1.00;;
20794;SDS011;28087;-33.874;151.240;2024-03-08T08:57:41;3.25;;;0.90;;
20794;SDS011;28087;-33.874;151.240;2024-03-08T09:00:47;5.97;;;1.10;;
20794;SDS011;28087;-33.874;151.240;2024-03-08T09:03:54;4.82;;;1.33;;
20794;SDS011;28087;-33.874;151.240;2024-03-08T09:07:03;3.95;;;0.90;;
20794;SDS011;28087;-33.874;151.240;2024-03-08T09:10:10;5.07;;;1.10;;
20794;SDS011;28087;-33.874;151.240;2024-03-08T09:13:19;4.55;;;0.80;;
20794;SDS011;28087;-33.874;151.240;2024-03-08T09:16:27;5.45;;;1.08;;
20794;SDS011;28087;-33.874;151.240;2024-03-08T09:19:34;3.67;;;0.90;;
20794;SDS011;28087;-33.874;151.240;2024-03-08T09:22:45;6.45;;;1.10;;
20794;SDS011;28087;-33.874;151.240;2024-03-08T09:25:55;4.68;;;1.17;;
20794;SDS011;28087;-33.874;151.240;2024-03-08T09:29:15;5.10;;;0.90;;
20794;SDS011;28087;-33.874;151.240;2024-03-08T09:32:22;4.78;;;1.00;;
20794;SDS011;28087;-33.874;151.240;2024-03-08T09:35:28;5.95;;;1.00;;
20794;SDS011;28087;-33.874;151.240;2024-03-08T09:38:36;4.28;;;0.85;;
20794;SDS011;28087;-33.874;151.240;2024-03-08T09:41:42;5.30;;;0.95;;
20794;SDS011;28087;-33.874;151.240;2024-03-08T09:44:48;4.38;;;0.90;;
20794;SDS011;28087;-33.874;151.240;2024-03-08T09:47:55;5.88;;;1.20;;
20794;SDS011;28087;-33.874;151.240;2024-03-08T09:51:02;4.38;;;0.95;;
20794;SDS011;28087;-33.874;151.240;2024-03-08T09:54:13;3.35;;;0.90;;
20794;SDS011;28087;-33.874;151.240;2024-03-08T09:57:20;4.75;;;0.90;;
20794;SDS011;28087;-33.874;151.240;2024-03-08T10:00:26;6.60;;;1.00;;
20794;SDS011;28087;-33.874;151.240;2024-03-08T10:03:32;4.63;;;1.05;;
20794;SDS011;28087;-33.874;151.240;2024-03-08T10:06:38;3.50;;;0.80;;
20794;SDS011;28087;-33.874;151.240;2024-03-08T10:09:46;4.53;;;1.00;;
20794;SDS011;28087;-33.874;151.240;2024-03-08T10:12:52;7.88;;;1.17;;
20794;SDS011;28087;-33.874;151.240;2024-03-08T10:16:00;4.38;;;1.10;;
20794;SDS011;28087;-33.874;151.240;2024-03-08T10:19:08;5.82;;;1.20;;
20794;SDS011;28087;-33.874;151.240;2024-03-08T10:22:16;6.82;;;1.20;;
20794;SDS011;28087;-33.874;151.240;2024-03-08T10:25:24;6.75;;;1.17;;
20794;SDS011;28087;-33.874;151.240;2024-03-08T10:28:30;4.43;;;1.00;;
20794;SDS011;28087;-33.874;151.240;2024-03-08T10:31:38;6.55;;;1.10;;
20794;SDS011;28087;-33.874;151.240;2024-03-08T10:34:47;4.57;;;1.10;;
20794;SDS011;28087;-33.874;151.240;2024-03-08T10:37:53;8.30;;;1.30;;
20794;SDS011;28087;-33.874;151.240;2024-03-08T10:41:06;5.00;;;0.90;;
20794;SDS011;28087;-33.874;151.240;2024-03-08T10:44:15;6.40;;;1.20;;
20794;SDS011;28087;-33.874;151.240;2024-03-08T10:47:29;8.10;;;1.52;;
20794;SDS011;28087;-33.874;151.240;2024-03-08T10:50:36;7.03;;;1.48;;
20794;SDS011;28087;-33.874;151.240;2024-03-08T10:53:53;5.25;;;1.20;;
20794;SDS011;28087;-33.874;151.240;2024-03-08T10:57:02;6.55;;;1.55;;
20794;SDS011;28087;-33.874;151.240;2024-03-08T11:00:08;8.65;;;1.60;;
20794;SDS011;28087;-33.874;151.240;2024-03-08T11:06:47;6.75;;;1.80;;
20794;SDS011;28087;-33.874;151.240;2024-03-08T11:09:53;6.43;;;1.13;;
20794;SDS011;28087;-33.874;151.240;2024-03-08T11:13:02;7.18;;;1.35;;
20794;SDS011;28087;-33.874;151.240;2024-03-08T11:16:08;8.02;;;1.30;;
20794;SDS011;28087;-33.874;151.240;2024-03-08T11:19:26;8.88;;;1.30;;
20794;SDS011;28087;-33.874;151.240;2024-03-08T11:22:32;8.55;;;1.48;;
20794;SDS011;28087;-33.874;151.240;2024-03-08T11:25:41;11.43;;;1.63;;
20794;SDS011;28087;-33.874;151.240;2024-03-08T11:28:50;6.22;;;1.60;;
20794;SDS011;28087;-33.874;151.240;2024-03-08T11:32:03;5.80;;;1.20;;
20794;SDS011;28087;-33.874;151.240;2024-03-08T11:35:17;10.57;;;1.73;;
20794;SDS011;28087;-33.874;151.240;2024-03-08T11:38:23;7.80;;;1.40;;
20794;SDS011;28087;-33.874;151.240;2024-03-08T11:41:29;6.90;;;1.38;;
20794;SDS011;28087;-33.874;151.240;2024-03-08T11:44:39;5.22;;;1.20;;
20794;SDS011;28087;-33.874;151.240;2024-03-08T11:47:44;6.75;;;1.20;;
20794;SDS011;28087;-33.874;151.240;2024-03-08T11:50:59;7.53;;;1.35;;
20794;SDS011;28087;-33.874;151.240;2024-03-08T11:54:05;7.35;;;1.52;;
20794;SDS011;28087;-33.874;151.240;2024-03-08T11:57:11;9.38;;;1.40;;
20794;SDS011;28087;-33.874;151.240;2024-03-08T12:00:19;6.55;;;1.20;;
20794;SDS011;28087;-33.874;151.240;2024-03-08T12:03:31;7.15;;;1.23;;
20794;SDS011;28087;-33.874;151.240;2024-03-08T12:06:38;7.18;;;1.30;;
20794;SDS011;28087;-33.874;151.240;2024-03-08T12:13:13;7.18;;;1.20;;
20794;SDS011;28087;-33.874;151.240;2024-03-08T12:16:23;7.03;;;1.20;;
20794;SDS011;28087;-33.874;151.240;2024-03-08T12:19:30;10.15;;;1.40;;
20794;SDS011;28087;-33.874;151.240;2024-03-08T12:22:37;8.10;;;1.67;;
20794;SDS011;28087;-33.874;151.240;2024-03-08T12:25:48;6.20;;;1.15;;
20794;SDS011;28087;-33.874;151.240;2024-03-08T12:29:00;8.43;;;1.48;;
20794;SDS011;28087;-33.874;151.240;2024-03-08T12:32:22;9.32;;;1.40;;
20794;SDS011;28087;-33.874;151.240;2024-03-08T12:35:29;7.38;;;1.23;;
20794;SDS011;28087;-33.874;151.240;2024-03-08T12:38:35;5.32;;;1.10;;
20794;SDS011;28087;-33.874;151.240;2024-03-08T12:41:46;9.07;;;1.40;;
20794;SDS011;28087;-33.874;151.240;2024-03-08T12:44:52;5.30;;;1.10;;
20794;SDS011;28087;-33.874;151.240;2024-03-08T12:48:02;6.13;;;1.25;;
20794;SDS011;28087;-33.874;151.240;2024-03-08T12:51:09;4.65;;;1.20;;
20794;SDS011;28087;-33.874;151.240;2024-03-08T12:54:15;6.43;;;1.27;;
20794;SDS011;28087;-33.874;151.240;2024-03-08T12:57:21;5.43;;;1.20;;
20794;SDS011;28087;-33.874;151.240;2024-03-08T13:00:28;9.27;;;1.27;;
20794;SDS011;28087;-33.874;151.240;2024-03-08T13:03:43;8.57;;;1.35;;
20794;SDS011;28087;-33.874;151.240;2024-03-08T13:10:16;6.35;;;1.10;;
20794;SDS011;28087;-33.874;151.240;2024-03-08T13:13:22;7.00;;;1.20;;
20794;SDS011;28087;-33.874;151.240;2024-03-08T13:16:31;5.60;;;1.23;;
20794;SDS011;28087;-33.874;151.240;2024-03-08T13:19:39;4.95;;;1.17;;
20794;SDS011;28087;-33.874;151.240;2024-03-08T13:22:54;5.15;;;1.00;;
20794;SDS011;28087;-33.874;151.240;2024-03-08T13:26:02;5.95;;;1.05;;
20794;SDS011;28087;-33.874;151.240;2024-03-08T13:29:14;5.15;;;1.10;;
20794;SDS011;28087;-33.874;151.240;2024-03-08T13:32:22;4.22;;;1.30;;
20794;SDS011;28087;-33.874;151.240;2024-03-08T13:35:30;4.68;;;0.98;;
20794;SDS011;28087;-33.874;151.240;2024-03-08T13:38:38;5.25;;;0.90;;
20794;SDS011;28087;-33.874;151.240;2024-03-08T13:41:45;2.83;;;0.90;;
20794;SDS011;28087;-33.874;151.240;2024-03-08T13:44:52;7.85;;;1.33;;
20794;SDS011;28087;-33.874;151.240;2024-03-08T13:47:57;4.45;;;1.17;;
20794;SDS011;28087;-33.874;151.240;2024-03-08T13:51:09;6.05;;;1.25;;
20794;SDS011;28087;-33.874;151.240;2024-03-08T13:54:18;5.45;;;1.23;;
20794;SDS011;28087;-33.874;151.240;2024-03-08T13:57:27;5.50;;;1.05;;
20794;SDS011;28087;-33.874;151.240;2024-03-08T14:00:34;6.40;;;1.20;;
20794;SDS011;28087;-33.874;151.240;2024-03-08T14:03:44;6.30;;;1.13;;
20794;SDS011;28087;-33.874;151.240;2024-03-08T14:06:52;9.23;;;1.40;;
20794;SDS011;28087;-33.874;151.240;2024-03-08T14:09:59;5.45;;;1.17;;
20794;SDS011;28087;-33.874;151.240;2024-03-08T14:13:07;5.93;;;1.33;;
20794;SDS011;28087;-33.874;151.240;2024-03-08T14:16:14;4.63;;;1.00;;
20794;SDS011;28087;-33.874;151.240;2024-03-08T14:19:21;6.32;;;1.13;;
20794;SDS011;28087;-33.874;151.240;2024-03-08T14:22:31;4.10;;;1.10;;
20794;SDS011;28087;-33.874;151.240;2024-03-08T14:25:36;5.75;;;1.20;;
20794;SDS011;28087;-33.874;151.240;2024-03-08T14:28:46;5.65;;;1.10;;
20794;SDS011;28087;-33.874;151.240;2024-03-08T14:31:53;4.45;;;1.10;;
20794;SDS011;28087;-33.874;151.240;2024-03-08T14:34:56;5.43;;;1.08;;
20794;SDS011;28087;-33.874;151.240;2024-03-08T14:37:58;5.88;;;1.00;;
20794;SDS011;28087;-33.874;151.240;2024-03-08T14:41:05;6.35;;;1.23;;
20794;SDS011;28087;-33.874;151.240;2024-03-08T14:44:13;4.50;;;0.98;;
20794;SDS011;28087;-33.874;151.240;2024-03-08T14:47:21;3.30;;;0.82;;
20794;SDS011;28087;-33.874;151.240;2024-03-08T14:50:30;4.53;;;1.00;;
20794;SDS011;28087;-33.874;151.240;2024-03-08T14:53:42;6.13;;;1.10;;
20794;SDS011;28087;-33.874;151.240;2024-03-08T14:56:47;5.78;;;1.10;;
20794;SDS011;28087;-33.874;151.240;2024-03-08T14:59:55;4.28;;;1.00;;
20794;SDS011;28087;-33.874;151.240;2024-03-08T15:03:04;4.07;;;0.82;;
20794;SDS011;28087;-33.874;151.240;2024-03-08T15:06:13;3.20;;;0.90;;
20794;SDS011;28087;-33.874;151.240;2024-03-08T15:09:21;3.67;;;1.00;;
20794;SDS011;28087;-33.874;151.240;2024-03-08T15:12:35;5.38;;;1.13;;
20794;SDS011;28087;-33.874;151.240;2024-03-08T15:15:41;4.05;;;1.00;;
20794;SDS011;28087;-33.874;151.240;2024-03-08T15:18:52;3.78;;;0.95;;
20794;SDS011;28087;-33.874;151.240;2024-03-08T15:22:00;4.88;;;1.17;;
20794;SDS011;28087;-33.874;151.240;2024-03-08T15:25:09;3.88;;;0.98;;
20794;SDS011;28087;-33.874;151.240;2024-03-08T15:28:16;4.95;;;0.90;;
20794;SDS011;28087;-33.874;151.240;2024-03-08T15:31:30;5.68;;;1.08;;
20794;SDS011;28087;-33.874;151.240;2024-03-08T15:34:42;6.80;;;1.25;;
20794;SDS011;28087;-33.874;151.240;2024-03-08T15:37:45;3.88;;;1.10;;
20794;SDS011;28087;-33.874;151.240;2024-03-08T15:40:48;5.28;;;1.42;;
20794;SDS011;28087;-33.874;151.240;2024-03-08T15:43:56;5.10;;;1.00;;
20794;SDS011;28087;-33.874;151.240;2024-03-08T15:47:02;5.80;;;1.35;;
20794;SDS011;28087;-33.874;151.240;2024-03-08T15:50:08;5.65;;;1.13;;
20794;SDS011;28087;-33.874;151.240;2024-03-08T15:53:16;3.72;;;0.98;;
20794;SDS011;28087;-33.874;151.240;2024-03-08T15:56:24;4.93;;;1.20;;
20794;SDS011;28087;-33.874;151.240;2024-03-08T15:59:30;4.85;;;0.90;;
20794;SDS011;28087;-33.874;151.240;2024-03-08T16:02:39;3.70;;;0.90;;
20794;SDS011;28087;-33.874;151.240;2024-03-08T16:05:47;3.00;;;0.90;;
20794;SDS011;28087;-33.874;151.240;2024-03-08T16:08:53;4.68;;;1.05;;
20794;SDS011;28087;-33.874;151.240;2024-03-08T16:12:01;3.97;;;1.10;;
20794;SDS011;28087;-33.874;151.240;2024-03-08T16:15:10;3.90;;;0.93;;
20794;SDS011;28087;-33.874;151.240;2024-03-08T16:18:19;7.85;;;1.10;;
20794;SDS011;28087;-33.874;151.240;2024-03-08T16:21:27;5.78;;;1.30;;
20794;SDS011;28087;-33.874;151.240;2024-03-08T16:24:34;6.88;;;1.42;;
20794;SDS011;28087;-33.874;151.240;2024-03-08T16:27:42;6.10;;;1.30;;
20794;SDS011;28087;-33.874;151.240;2024-03-08T16:30:48;5.57;;;1.17;;
20794;SDS011;28087;-33.874;151.240;2024-03-08T16:33:54;5.10;;;1.10;;
20794;SDS011;28087;-33.874;151.240;2024-03-08T16:37:01;6.03;;;1.30;;
20794;SDS011;28087;-33.874;151.240;2024-03-08T16:40:08;5.68;;;1.10;;
20794;SDS011;28087;-33.874;151.240;2024-03-08T16:43:17;6.40;;;1.33;;
20794;SDS011;28087;-33.874;151.240;2024-03-08T16:46:24;5.18;;;1.35;;
20794;SDS011;28087;-33.874;151.240;2024-03-08T16:49:31;4.97;;;1.30;;
20794;SDS011;28087;-33.874;151.240;2024-03-08T16:52:38;6.05;;;1.30;;
20794;SDS011;28087;-33.874;151.240;2024-03-08T16:55:48;5.50;;;1.27;;
20794;SDS011;28087;-33.874;151.240;2024-03-08T16:58:57;5.90;;;1.20;;
20794;SDS011;28087;-33.874;151.240;2024-03-08T17:02:04;4.35;;;1.00;;
20794;SDS011;28087;-33.874;151.240;2024-03-08T17:08:23;4.32;;;1.13;;
20794;SDS011;28087;-33.874;151.240;2024-03-08T17:11:31;4.78;;;1.17;;
20794;SDS011;28087;-33.874;151.240;2024-03-08T17:14:37;4.13;;;1.23;;
20794;SDS011;28087;-33.874;151.240;2024-03-08T17:17:45;4.00;;;1.15;;
20794;SDS011;28087;-33.874;151.240;2024-03-08T17:20:55;4.13;;;1.10;;
20794;SDS011;28087;-33.874;151.240;2024-03-08T17:24:05;5.95;;;1.10;;
20794;SDS011;28087;-33.874;151.240;2024-03-08T17:27:13;5.25;;;1.05;;
20794;SDS011;28087;-33.874;151.240;2024-03-08T17:30:23;3.70;;;1.00;;
20794;SDS011;28087;-33.874;151.240;2024-03-08T17:33:29;3.67;;;0.93;;
20794;SDS011;28087;-33.874;151.240;2024-03-08T17:36:37;4.38;;;0.90;;
20794;SDS011;28087;-33.874;151.240;2024-03-08T17:39:47;6.40;;;1.67;;
20794;SDS011;28087;-33.874;151.240;2024-03-08T17:42:54;7.30;;;1.42;;
20794;SDS011;28087;-33.874;151.240;2024-03-08T17:46:03;4.43;;;1.10;;
20794;SDS011;28087;-33.874;151.240;2024-03-08T17:49:10;3.45;;;1.10;;
20794;SDS011;28087;-33.874;151.240;2024-03-08T17:52:17;4.50;;;1.08;;
20794;SDS011;28087;-33.874;151.240;2024-03-08T17:55:26;4.55;;;1.15;;
20794;SDS011;28087;-33.874;151.240;2024-03-08T17:58:33;6.07;;;1.30;;
20794;SDS011;28087;-33.874;151.240;2024-03-08T18:01:40;5.38;;;1.20;;
20794;SDS011;28087;-33.874;151.240;2024-03-08T18:04:47;4.13;;;1.10;;
20794;SDS011;28087;-33.874;151.240;2024-03-08T18:07:57;4.57;;;1.20;;
20794;SDS011;28087;-33.874;151.240;2024-03-08T18:11:05;5.45;;;1.10;;
20794;SDS011;28087;-33.874;151.240;2024-03-08T18:14:13;6.13;;;1.10;;